Archival Weather

Sulphur Springs Muni

Sulphur Springs, Texas (KSLR)

Report from: Thursday, September 21, 2023 11:54 AM CDT
Current time: Saturday, February 24, 2024 8:58 AM CST

Current weather – Weather history – Daily summaries
Weather forecast

Temperature31.0°C (87.8°F)
Heat index33.8°C (92.8°F)
Dew point21.0°C (69.8°F)
Winds 9 kts (4.6 m/s, 10.4 mph) South (180°)
Visibility10 mi. (16.1 km)
Clouds Scattered clouds 2,900 ft. (884 m)
Altimeter30.07 in.Hg (1018 mB)
Relative humidity55 %
Density altitude1,997 ft. (609 m)
Remarks Fully automated report
Automated weather observing station with precipitation discriminator
Flight conditions Visual Meteorological Conditions
Raw dataKSLR 211654Z AUTO 18009KT 10SM SCT029 31/21 A3007 RMK AO2
An error has occurred. This application may no longer respond until reloaded. Reload 🗙